Language: 


Des rapports , des résumés tant et plus, au choix de chacun....


Données statistiques de la station
Quotidien Rapport Février 2, 2017 Unités:  Métrique    Anglais   les deux
« Précédent Jour
Suivant Jour »
Quotidien Hebdomadaire Mensuel Annuel Actuel
  Haut: Bas: Moyen:
Température: 13.7 °C 0.0 °C 10.3 °C
Pt de rosée: 10.0 °C 7.6 °C 8.7 °C
Humidité: 97 % 0 % 90 %
Vitesse du vent: 26.7 km/h 0.0 km/h 11.6 km/h
Rafales: 34.6 km/h - -
Vent:- - South
Pression: 1007.0 hPa 0.0 hPa -
Précipitation: 0.5 mm    
Historical Graphs
 
 
Données statistiques pour Février 2, 2017
Heure Température Point de rosée Pression Vent Vitesse du vent Refales Humidité Pluie (taux horaire)
00:00 8.6 °C 8.2 °C 1006.0 hPa South 9.0 km/h 14.3 km/h 97 % 0.0 mm
00:05 8.7 °C 8.3 °C 1006.0 hPa South 7.9 km/h 14.3 km/h 97 % 0.0 mm
00:10 8.7 °C 8.3 °C 1007.0 hPa South 6.4 km/h 13.0 km/h 97 % 0.0 mm
00:15 8.7 °C 8.3 °C 1007.0 hPa SSW 6.4 km/h 13.7 km/h 97 % 0.0 mm
00:18 8.6 °C 8.2 °C 1007.0 hPa SSW 6.9 km/h 13.7 km/h 97 % 0.0 mm
00:23 8.6 °C 8.2 °C 1007.0 hPa South 12.6 km/h 13.7 km/h 97 % 0.0 mm
00:28 8.6 °C 8.2 °C 1007.0 hPa South 13.0 km/h 14.0 km/h 97 % 0.0 mm
00:33 8.7 °C 8.3 °C 1007.0 hPa South 13.7 km/h 15.1 km/h 97 % 0.0 mm
00:38 8.7 °C 8.3 °C 1007.0 hPa SSW 10.1 km/h 17.2 km/h 97 % 0.0 mm
00:43 8.7 °C 8.3 °C 1007.0 hPa South 18.3 km/h 18.3 km/h 97 % 0.0 mm
00:48 8.8 °C 8.4 °C 1007.0 hPa SSW 9.0 km/h 18.3 km/h 97 % 0.0 mm
00:49 8.8 °C 8.4 °C 1007.0 hPa South 7.2 km/h 18.3 km/h 97 % 0.0 mm
00:54 8.8 °C 8.4 °C 1006.0 hPa South 11.6 km/h 14.0 km/h 97 % 0.0 mm
00:59 8.9 °C 8.4 °C 1006.0 hPa SSE 12.2 km/h 16.3 km/h 97 % 0.0 mm
01:04 8.9 °C 8.4 °C 1006.0 hPa South 7.9 km/h 16.3 km/h 97 % 0.0 mm
01:09 9.0 °C 8.6 °C 1007.0 hPa SSW 13.7 km/h 20.9 km/h 97 % 0.0 mm
01:14 9.0 °C 8.6 °C 1007.0 hPa SSE 7.6 km/h 20.9 km/h 97 % 0.0 mm
01:19 9.1 °C 8.7 °C 1007.0 hPa South 12.2 km/h 14.0 km/h 97 % 0.0 mm
01:24 9.1 °C 8.5 °C 1007.0 hPa South 12.2 km/h 14.0 km/h 96 % 0.0 mm
01:29 9.0 °C 8.4 °C 1007.0 hPa SSE 10.5 km/h 12.6 km/h 96 % 0.0 mm
01:34 8.9 °C 8.3 °C 1007.0 hPa SSW 10.1 km/h 14.0 km/h 96 % 0.0 mm
01:39 8.8 °C 8.2 °C 1007.0 hPa South 12.2 km/h 16.6 km/h 96 % 0.0 mm
01:44 8.8 °C 8.2 °C 1007.0 hPa SE 7.9 km/h 16.6 km/h 96 % 0.0 mm
01:49 8.7 °C 8.3 °C 1007.0 hPa SSE 14.0 km/h 14.0 km/h 97 % 0.0 mm
01:54 8.7 °C 8.3 °C 1006.0 hPa SSE 10.1 km/h 15.4 km/h 97 % 0.0 mm
01:59 8.6 °C 8.2 °C 1006.0 hPa South 6.4 km/h 15.4 km/h 97 % 0.0 mm
02:04 8.5 °C 8.1 °C 1006.0 hPa South 6.9 km/h 12.6 km/h 97 % 0.0 mm
02:09 8.5 °C 8.1 °C 1006.0 hPa SSW 6.1 km/h 11.6 km/h 97 % 0.0 mm
02:14 8.4 °C 8.0 °C 1006.0 hPa South 6.4 km/h 11.1 km/h 97 % 0.0 mm
02:19 8.3 °C 7.9 °C 1006.0 hPa South 9.7 km/h 12.6 km/h 97 % 0.0 mm
02:24 8.3 °C 7.9 °C 1006.0 hPa South 11.9 km/h 13.0 km/h 97 % 0.0 mm
02:29 8.3 °C 7.9 °C 1006.0 hPa SSE 5.0 km/h 13.7 km/h 97 % 0.0 mm
02:34 8.3 °C 7.9 °C 1006.0 hPa SSE 7.9 km/h 13.7 km/h 97 % 0.0 mm
02:39 8.3 °C 7.9 °C 1006.0 hPa South 8.7 km/h 16.3 km/h 97 % 0.0 mm
02:44 8.3 °C 7.9 °C 1006.0 hPa SSE 6.4 km/h 19.1 km/h 97 % 0.0 mm
02:49 8.3 °C 7.9 °C 1006.0 hPa South 10.1 km/h 19.1 km/h 97 % 0.0 mm
02:54 8.3 °C 7.9 °C 1006.0 hPa South 6.4 km/h 13.7 km/h 97 % 0.0 mm
02:59 8.3 °C 7.9 °C 1006.0 hPa SSW 8.7 km/h 14.8 km/h 97 % 0.0 mm
03:06 0.0 °C 7.9 °C 0.0 hPa SSW 14.3 km/h 14.3 km/h 0 % 0.0 mm
03:11 8.3 °C 7.9 °C 1006.0 hPa SSE 11.9 km/h 17.7 km/h 97 % 0.0 mm
03:16 8.3 °C 7.9 °C 1006.0 hPa SSW 10.5 km/h 17.7 km/h 97 % 0.0 mm
03:21 8.3 °C 7.9 °C 1006.0 hPa SSE 5.8 km/h 14.0 km/h 97 % 0.0 mm
03:26 8.3 °C 7.9 °C 1006.0 hPa South 6.1 km/h 11.6 km/h 97 % 0.0 mm
03:31 8.3 °C 7.9 °C 1006.0 hPa SSE 5.8 km/h 10.1 km/h 97 % 0.0 mm
03:36 8.3 °C 7.9 °C 1006.0 hPa SSE 5.0 km/h 10.1 km/h 97 % 0.0 mm
03:41 8.3 °C 7.9 °C 1005.0 hPa South 6.9 km/h 12.6 km/h 97 % 0.0 mm
03:46 8.4 °C 8.0 °C 1005.0 hPa South 11.9 km/h 15.1 km/h 97 % 0.0 mm
03:51 8.4 °C 8.0 °C 1005.0 hPa South 13.0 km/h 15.1 km/h 97 % 0.0 mm
03:56 8.4 °C 8.0 °C 1005.0 hPa South 5.8 km/h 13.7 km/h 97 % 0.0 mm
04:01 8.4 °C 8.0 °C 1005.0 hPa SSE 6.4 km/h 13.7 km/h 97 % 0.0 mm
04:06 8.4 °C 8.0 °C 1005.0 hPa SSE 7.6 km/h 13.7 km/h 97 % 0.0 mm
04:11 8.4 °C 8.0 °C 1005.0 hPa South 10.5 km/h 13.7 km/h 97 % 0.0 mm
04:16 8.4 °C 8.0 °C 1005.0 hPa South 9.0 km/h 15.1 km/h 97 % 0.0 mm
04:21 8.3 °C 7.9 °C 1005.0 hPa South 9.7 km/h 15.1 km/h 97 % 0.0 mm
04:26 8.4 °C 8.0 °C 1003.9 hPa SE 5.0 km/h 14.0 km/h 97 % 0.0 mm
04:31 8.3 °C 7.9 °C 1003.9 hPa SSE 7.6 km/h 14.0 km/h 97 % 0.0 mm
04:36 8.3 °C 7.9 °C 1003.9 hPa South 5.5 km/h 13.0 km/h 97 % 0.0 mm
04:41 8.3 °C 7.9 °C 1003.9 hPa SSE 11.6 km/h 14.0 km/h 97 % 0.0 mm
04:46 8.2 °C 7.8 °C 1003.9 hPa South 16.6 km/h 17.2 km/h 97 % 0.0 mm
04:51 8.3 °C 7.9 °C 1003.9 hPa SSE 8.7 km/h 17.2 km/h 97 % 0.0 mm
04:56 8.2 °C 7.8 °C 1005.0 hPa SSE 13.7 km/h 16.6 km/h 97 % 0.0 mm
05:01 8.1 °C 7.7 °C 1005.0 hPa SSW 10.1 km/h 14.3 km/h 97 % 0.0 mm
05:06 8.1 °C 7.7 °C 1005.0 hPa SSW 9.3 km/h 15.8 km/h 97 % 0.0 mm
05:11 8.2 °C 7.8 °C 1005.0 hPa South 12.6 km/h 19.5 km/h 97 % 0.0 mm
05:16 8.2 °C 7.8 °C 1005.0 hPa South 14.0 km/h 19.5 km/h 97 % 0.0 mm
05:21 8.2 °C 7.8 °C 1005.0 hPa South 12.2 km/h 19.1 km/h 97 % 0.0 mm
05:26 8.2 °C 7.8 °C 1005.0 hPa South 14.0 km/h 20.1 km/h 97 % 0.0 mm
05:31 8.2 °C 7.8 °C 1005.0 hPa SSE 9.3 km/h 20.1 km/h 97 % 0.0 mm
05:36 8.1 °C 7.7 °C 1005.0 hPa SSE 5.8 km/h 16.6 km/h 97 % 0.0 mm
05:41 8.1 °C 7.7 °C 1005.0 hPa South 5.0 km/h 13.0 km/h 97 % 0.0 mm
05:46 8.1 °C 7.6 °C 1005.0 hPa SSE 4.7 km/h 11.6 km/h 97 % 0.0 mm
05:51 8.1 °C 7.6 °C 1005.0 hPa SSE 10.5 km/h 11.9 km/h 97 % 0.0 mm
05:56 8.1 °C 7.6 °C 1005.0 hPa SSE 8.7 km/h 13.7 km/h 97 % 0.0 mm
06:01 8.1 °C 7.7 °C 1005.0 hPa South 6.1 km/h 16.9 km/h 97 % 0.0 mm
06:06 8.1 °C 7.7 °C 1005.0 hPa SSE 4.0 km/h 16.9 km/h 97 % 0.0 mm
06:11 8.2 °C 7.8 °C 1005.0 hPa SSE 9.3 km/h 14.0 km/h 97 % 0.0 mm
06:16 8.2 °C 7.8 °C 1005.0 hPa South 5.5 km/h 14.0 km/h 97 % 0.0 mm
06:21 8.2 °C 7.8 °C 1005.0 hPa SSE 7.9 km/h 16.6 km/h 97 % 0.0 mm
06:26 8.2 °C 7.8 °C 1003.9 hPa South 6.9 km/h 16.6 km/h 97 % 0.0 mm
06:31 8.2 °C 7.8 °C 1003.9 hPa South 10.1 km/h 14.0 km/h 97 % 0.0 mm
06:36 8.3 °C 7.9 °C 1003.9 hPa SSE 9.0 km/h 14.0 km/h 97 % 0.0 mm
06:41 8.3 °C 7.9 °C 1005.0 hPa South 1.8 km/h 11.9 km/h 97 % 0.0 mm
06:46 8.3 °C 7.9 °C 1005.0 hPa SSW 6.9 km/h 15.1 km/h 97 % 0.0 mm
06:51 8.3 °C 7.9 °C 1005.0 hPa South 10.1 km/h 15.1 km/h 97 % 0.0 mm
06:56 8.3 °C 7.9 °C 1003.9 hPa South 7.9 km/h 14.0 km/h 97 % 0.0 mm
07:01 8.3 °C 7.9 °C 1003.9 hPa South 10.1 km/h 14.0 km/h 97 % 0.0 mm
07:06 8.3 °C 7.9 °C 1003.9 hPa South 8.7 km/h 16.3 km/h 97 % 0.0 mm
07:11 8.3 °C 7.9 °C 1003.9 hPa South 9.7 km/h 16.9 km/h 97 % 0.0 mm
07:16 8.4 °C 8.0 °C 1003.9 hPa South 13.0 km/h 20.9 km/h 97 % 0.0 mm
07:21 8.4 °C 8.0 °C 1003.9 hPa SSW 10.1 km/h 20.9 km/h 97 % 0.0 mm
07:26 8.4 °C 8.0 °C 1003.9 hPa SSW 9.0 km/h 20.9 km/h 97 % 0.0 mm
07:31 8.4 °C 8.0 °C 1003.9 hPa South 11.9 km/h 20.1 km/h 97 % 0.0 mm
07:36 8.4 °C 8.0 °C 1003.9 hPa South 9.7 km/h 23.3 km/h 97 % 0.0 mm
07:41 8.4 °C 8.0 °C 1003.9 hPa SSE 14.3 km/h 23.3 km/h 97 % 0.0 mm
07:46 8.4 °C 8.0 °C 1003.9 hPa South 14.0 km/h 23.0 km/h 97 % 0.0 mm
07:51 8.5 °C 8.1 °C 1003.9 hPa SSE 9.3 km/h 23.0 km/h 97 % 0.0 mm
07:56 8.5 °C 8.1 °C 1002.9 hPa SSW 6.1 km/h 21.9 km/h 97 % 0.0 mm
08:01 8.5 °C 8.1 °C 1002.9 hPa SSE 8.7 km/h 21.9 km/h 97 % 0.0 mm
08:06 8.5 °C 8.1 °C 1002.9 hPa South 8.7 km/h 23.8 km/h 97 % 0.0 mm
08:11 8.6 °C 8.2 °C 1002.9 hPa South 9.3 km/h 23.8 km/h 97 % 0.0 mm
08:16 8.6 °C 8.0 °C 1002.9 hPa SSW 26.7 km/h 26.7 km/h 96 % 0.0 mm
08:21 8.6 °C 8.0 °C 1002.9 hPa South 6.1 km/h 26.7 km/h 96 % 0.0 mm
08:26 8.6 °C 8.0 °C 1002.9 hPa SSE 12.2 km/h 19.8 km/h 96 % 0.0 mm
08:31 8.6 °C 8.0 °C 1002.9 hPa South 7.9 km/h 19.1 km/h 96 % 0.0 mm
08:36 8.6 °C 8.0 °C 1002.9 hPa SSE 9.3 km/h 23.0 km/h 96 % 0.0 mm
08:41 8.7 °C 8.1 °C 1002.9 hPa South 13.7 km/h 23.0 km/h 96 % 0.0 mm
08:46 8.7 °C 8.1 °C 1002.9 hPa SSE 16.9 km/h 19.5 km/h 96 % 0.0 mm
08:51 8.8 °C 8.2 °C 1002.9 hPa SSW 15.8 km/h 19.5 km/h 96 % 0.0 mm
08:56 8.9 °C 8.3 °C 1002.9 hPa South 10.8 km/h 20.6 km/h 96 % 0.0 mm
09:01 8.9 °C 8.3 °C 1002.9 hPa SSW 9.7 km/h 20.6 km/h 96 % 0.0 mm
09:06 8.9 °C 8.3 °C 1002.9 hPa South 10.1 km/h 20.1 km/h 96 % 0.0 mm
09:07 8.9 °C 8.3 °C 1002.9 hPa SSW 12.2 km/h 20.1 km/h 96 % 0.0 mm
09:12 9.0 °C 8.4 °C 1002.9 hPa South 12.2 km/h 20.1 km/h 96 % 0.0 mm
09:17 9.0 °C 8.4 °C 1002.9 hPa South 6.9 km/h 25.3 km/h 96 % 0.0 mm
09:22 9.1 °C 8.3 °C 1002.9 hPa SSE 13.0 km/h 25.3 km/h 95 % 0.0 mm
09:27 9.2 °C 8.4 °C 1002.9 hPa SSE 16.6 km/h 21.2 km/h 95 % 0.0 mm
09:32 9.3 °C 8.6 °C 1002.9 hPa SSE 16.3 km/h 19.8 km/h 95 % 0.0 mm
09:37 9.4 °C 8.7 °C 1002.9 hPa SSE 13.0 km/h 19.5 km/h 95 % 0.0 mm
09:42 9.4 °C 8.7 °C 1002.9 hPa SSE 8.7 km/h 20.9 km/h 95 % 0.0 mm
09:47 9.5 °C 8.7 °C 1002.9 hPa SSE 12.2 km/h 21.2 km/h 95 % 0.0 mm
09:52 9.5 °C 8.6 °C 1002.9 hPa South 16.6 km/h 21.6 km/h 94 % 0.0 mm
09:57 9.6 °C 8.7 °C 1002.9 hPa South 11.9 km/h 25.3 km/h 94 % 0.0 mm
10:02 9.5 °C 8.6 °C 1002.9 hPa SSE 8.7 km/h 25.3 km/h 94 % 0.0 mm
10:07 9.5 °C 8.6 °C 1003.9 hPa SE 7.9 km/h 16.9 km/h 94 % 0.0 mm
10:12 9.5 °C 8.6 °C 1003.9 hPa SSE 10.5 km/h 17.7 km/h 94 % 0.0 mm
10:17 9.6 °C 8.7 °C 1003.9 hPa South 5.0 km/h 17.7 km/h 94 % 0.0 mm
10:22 9.6 °C 8.7 °C 1002.9 hPa SSE 12.6 km/h 17.2 km/h 94 % 0.0 mm
10:27 9.7 °C 8.8 °C 1002.9 hPa South 13.0 km/h 20.6 km/h 94 % 0.0 mm
10:32 9.8 °C 8.7 °C 1002.9 hPa SE 9.7 km/h 20.6 km/h 93 % 0.0 mm
10:37 9.9 °C 8.8 °C 1001.9 hPa SSE 8.7 km/h 19.5 km/h 93 % 0.0 mm
10:42 9.9 °C 8.8 °C 1001.9 hPa SSE 5.5 km/h 21.2 km/h 93 % 0.0 mm
10:47 10.1 °C 8.8 °C 1001.9 hPa SSW 11.9 km/h 23.8 km/h 92 % 0.0 mm
10:52 10.2 °C 8.9 °C 1002.9 hPa SSE 11.1 km/h 23.8 km/h 92 % 0.0 mm
10:57 10.4 °C 9.0 °C 1002.9 hPa SSE 14.8 km/h 20.1 km/h 91 % 0.0 mm
11:02 10.6 °C 9.0 °C 1002.9 hPa SSE 16.3 km/h 20.1 km/h 90 % 0.0 mm
11:07 10.7 °C 9.1 °C 1002.9 hPa South 16.9 km/h 19.5 km/h 90 % 0.0 mm
11:12 10.8 °C 8.9 °C 1002.9 hPa South 14.0 km/h 19.5 km/h 88 % 0.0 mm
11:17 10.8 °C 8.9 °C 1002.9 hPa SSE 17.2 km/h 22.7 km/h 88 % 0.0 mm
11:22 10.9 °C 8.8 °C 1001.9 hPa SSE 7.9 km/h 22.7 km/h 87 % 0.0 mm
11:27 11.1 °C 9.0 °C 1001.9 hPa SSE 14.0 km/h 28.0 km/h 87 % 0.0 mm
11:32 11.4 °C 9.2 °C 1001.9 hPa SSE 13.0 km/h 28.0 km/h 86 % 0.0 mm
11:37 11.8 °C 9.3 °C 1001.9 hPa SSE 12.2 km/h 21.2 km/h 85 % 0.0 mm
11:42 11.8 °C 9.2 °C 1001.9 hPa South 11.9 km/h 21.2 km/h 84 % 0.0 mm
11:47 12.1 °C 9.4 °C 1001.9 hPa South 13.7 km/h 21.2 km/h 84 % 0.0 mm
11:52 12.2 °C 9.4 °C 1001.9 hPa South 8.7 km/h 21.2 km/h 83 % 0.0 mm
11:57 12.4 °C 9.4 °C 1001.9 hPa SSW 10.1 km/h 25.3 km/h 82 % 0.0 mm
12:02 12.4 °C 9.3 °C 1001.9 hPa South 10.5 km/h 25.3 km/h 81 % 0.0 mm
12:07 12.3 °C 9.2 °C 1001.9 hPa SSE 20.9 km/h 23.3 km/h 81 % 0.0 mm
12:12 11.9 °C 8.4 °C 1001.9 hPa South 7.9 km/h 23.3 km/h 79 % 0.0 mm
12:17 11.9 °C 8.6 °C 1001.9 hPa SSE 12.6 km/h 20.1 km/h 80 % 0.0 mm
12:22 12.2 °C 8.9 °C 1001.9 hPa South 9.3 km/h 27.0 km/h 80 % 0.0 mm
12:27 12.4 °C 9.1 °C 1001.9 hPa SSW 24.5 km/h 27.0 km/h 80 % 0.0 mm
12:32 12.6 °C 9.0 °C 1001.9 hPa SSE 16.9 km/h 25.6 km/h 79 % 0.0 mm
12:37 12.7 °C 9.1 °C 1000.9 hPa South 15.8 km/h 21.9 km/h 79 % 0.0 mm
12:42 12.9 °C 9.4 °C 1000.9 hPa SSW 10.1 km/h 20.1 km/h 79 % 0.0 mm
12:47 13.1 °C 9.1 °C 1000.9 hPa SSW 14.8 km/h 20.1 km/h 77 % 0.0 mm
12:52 13.1 °C 9.1 °C 1000.9 hPa South 20.6 km/h 24.5 km/h 77 % 0.0 mm
12:57 13.1 °C 9.0 °C 1000.9 hPa SSW 12.2 km/h 24.5 km/h 76 % 0.0 mm
13:02 13.1 °C 8.6 °C 1000.9 hPa South 23.3 km/h 25.3 km/h 74 % 0.0 mm
13:07 13.1 °C 8.5 °C 1001.9 hPa South 12.2 km/h 26.7 km/h 74 % 0.0 mm
13:12 13.1 °C 8.8 °C 1001.9 hPa South 19.5 km/h 26.7 km/h 75 % 0.0 mm
13:17 13.2 °C 8.9 °C 1001.9 hPa SSE 9.0 km/h 24.8 km/h 75 % 0.0 mm
13:22 13.1 °C 8.5 °C 1000.9 hPa South 13.0 km/h 27.7 km/h 74 % 0.0 mm
13:27 12.8 °C 8.3 °C 1000.9 hPa South 16.3 km/h 27.7 km/h 74 % 0.0 mm
13:32 12.8 °C 8.3 °C 1000.9 hPa South 21.2 km/h 25.3 km/h 74 % 0.0 mm
13:37 12.9 °C 8.4 °C 1000.9 hPa South 19.8 km/h 28.0 km/h 74 % 0.0 mm
13:42 13.1 °C 8.8 °C 1000.9 hPa SSE 20.9 km/h 34.6 km/h 75 % 0.0 mm
13:47 13.3 °C 8.8 °C 1000.9 hPa South 16.6 km/h 34.6 km/h 74 % 0.0 mm
13:52 13.4 °C 8.9 °C 1000.9 hPa South 14.3 km/h 24.5 km/h 74 % 0.0 mm
13:57 13.6 °C 9.1 °C 1000.9 hPa South 17.7 km/h 27.4 km/h 74 % 0.0 mm
14:02 13.7 °C 8.9 °C 1000.9 hPa SSW 9.7 km/h 27.4 km/h 73 % 0.0 mm
14:07 13.7 °C 8.9 °C 999.9 hPa South 13.7 km/h 30.6 km/h 73 % 0.0 mm
14:12 13.7 °C 9.2 °C 999.9 hPa South 14.0 km/h 30.6 km/h 74 % 0.0 mm
14:17 13.4 °C 8.9 °C 999.9 hPa SSE 19.1 km/h 23.8 km/h 74 % 0.0 mm
14:22 13.2 °C 8.7 °C 999.9 hPa South 11.9 km/h 23.8 km/h 74 % 0.0 mm
14:27 13.1 °C 8.6 °C 999.9 hPa South 9.3 km/h 23.8 km/h 74 % 0.0 mm
14:32 13.1 °C 8.8 °C 999.9 hPa South 14.0 km/h 23.8 km/h 75 % 0.0 mm
14:37 13.1 °C 8.9 °C 999.9 hPa South 8.7 km/h 23.8 km/h 76 % 0.0 mm
14:42 13.1 °C 8.9 °C 999.9 hPa South 17.2 km/h 20.9 km/h 76 % 0.0 mm
14:47 13.1 °C 9.0 °C 999.9 hPa South 16.6 km/h 21.6 km/h 76 % 0.0 mm
14:52 13.2 °C 9.3 °C 999.9 hPa SSW 17.2 km/h 21.6 km/h 77 % 0.0 mm
14:57 13.2 °C 9.1 °C 999.9 hPa SSW 10.1 km/h 21.9 km/h 76 % 0.0 mm
15:02 13.2 °C 8.9 °C 999.9 hPa South 6.4 km/h 21.9 km/h 75 % 0.0 mm
15:07 13.1 °C 8.8 °C 999.9 hPa South 11.6 km/h 21.2 km/h 75 % 0.0 mm
15:12 13.1 °C 8.8 °C 999.9 hPa South 13.7 km/h 21.2 km/h 75 % 0.0 mm
15:17 13.1 °C 8.7 °C 999.9 hPa South 10.1 km/h 17.2 km/h 75 % 0.0 mm
15:22 12.9 °C 8.6 °C 999.9 hPa South 12.2 km/h 17.2 km/h 75 % 0.0 mm
15:27 12.9 °C 8.6 °C 999.9 hPa South 13.0 km/h 27.4 km/h 75 % 0.0 mm
15:32 12.8 °C 8.5 °C 999.9 hPa SSE 11.6 km/h 27.4 km/h 75 % 0.0 mm
15:37 12.7 °C 8.7 °C 998.9 hPa SSW 18.0 km/h 21.9 km/h 77 % 0.0 mm
15:42 12.6 °C 8.8 °C 998.9 hPa SSW 4.7 km/h 21.9 km/h 78 % 0.0 mm
15:47 12.3 °C 8.8 °C 998.9 hPa South 9.0 km/h 18.0 km/h 79 % 0.0 mm
15:52 12.2 °C 8.9 °C 998.9 hPa South 6.9 km/h 24.8 km/h 80 % 0.0 mm
15:57 12.2 °C 9.0 °C 998.9 hPa SSE 13.7 km/h 24.8 km/h 81 % 0.0 mm
16:02 11.9 °C 9.0 °C 998.9 hPa South 16.3 km/h 20.6 km/h 82 % 0.0 mm
16:07 11.8 °C 8.9 °C 999.9 hPa South 10.1 km/h 16.6 km/h 82 % 0.0 mm
16:12 11.8 °C 9.1 °C 999.9 hPa South 12.6 km/h 23.0 km/h 83 % 0.0 mm
16:17 11.8 °C 8.9 °C 999.9 hPa South 16.9 km/h 23.0 km/h 83 % 0.0 mm
16:22 11.8 °C 9.2 °C 998.9 hPa SSE 20.1 km/h 21.6 km/h 84 % 0.0 mm
16:27 11.8 °C 9.2 °C 998.9 hPa SSE 17.2 km/h 26.2 km/h 84 % 0.0 mm
16:32 11.8 °C 9.1 °C 998.9 hPa South 20.1 km/h 26.2 km/h 83 % 0.0 mm
16:37 11.8 °C 9.1 °C 998.9 hPa SSE 19.5 km/h 24.8 km/h 83 % 0.0 mm
16:42 11.9 °C 9.0 °C 998.9 hPa South 8.7 km/h 28.0 km/h 82 % 0.0 mm
16:47 11.9 °C 9.0 °C 998.9 hPa SSE 25.6 km/h 28.0 km/h 82 % 0.0 mm
16:52 11.9 °C 9.0 °C 998.9 hPa SSE 24.8 km/h 25.6 km/h 82 % 0.0 mm
16:57 11.9 °C 9.0 °C 998.9 hPa South 19.5 km/h 24.8 km/h 82 % 0.0 mm
17:02 11.8 °C 9.1 °C 998.9 hPa SSW 15.1 km/h 27.7 km/h 83 % 0.0 mm
17:07 11.8 °C 9.1 °C 998.9 hPa South 16.6 km/h 28.8 km/h 83 % 0.0 mm
17:12 11.8 °C 9.2 °C 998.9 hPa SSW 12.2 km/h 28.8 km/h 84 % 0.0 mm
17:17 11.7 °C 9.2 °C 998.9 hPa SSW 13.7 km/h 28.5 km/h 85 % 0.0 mm
17:22 11.6 °C 9.5 °C 998.9 hPa South 9.0 km/h 22.7 km/h 87 % 0.0 mm
17:27 11.4 °C 9.7 °C 998.9 hPa South 19.1 km/h 32.8 km/h 89 % 0.0 mm
17:32 11.4 °C 9.8 °C 998.9 hPa South 14.0 km/h 32.8 km/h 90 % 0.3 mm
17:37 11.3 °C 9.8 °C 998.9 hPa SSW 13.7 km/h 24.5 km/h 91 % 0.3 mm
17:42 11.2 °C 9.9 °C 998.9 hPa SSW 12.6 km/h 24.8 km/h 92 % 0.3 mm
17:47 11.1 °C 9.8 °C 998.9 hPa South 17.7 km/h 24.8 km/h 92 % 0.3 mm
17:52 11.0 °C 9.9 °C 999.9 hPa South 13.0 km/h 21.2 km/h 93 % 0.3 mm
17:57 11.0 °C 9.9 °C 999.9 hPa SSE 22.7 km/h 22.7 km/h 93 % 0.3 mm
18:02 10.9 °C 9.8 °C 999.9 hPa South 12.6 km/h 22.7 km/h 93 % 0.3 mm
18:07 10.9 °C 9.8 °C 999.9 hPa South 13.0 km/h 20.6 km/h 93 % 0.3 mm
18:12 10.8 °C 9.7 °C 999.9 hPa SSE 14.0 km/h 20.6 km/h 93 % 0.3 mm
18:13 10.8 °C 9.7 °C 999.9 hPa South 9.7 km/h 20.6 km/h 93 % 0.3 mm
18:18 10.9 °C 9.8 °C 999.9 hPa SSW 9.7 km/h 26.7 km/h 93 % 0.3 mm
18:23 10.9 °C 9.6 °C 999.9 hPa South 15.8 km/h 26.7 km/h 92 % 0.3 mm
18:28 10.9 °C 9.6 °C 999.9 hPa SSW 11.1 km/h 21.2 km/h 92 % 0.5 mm
18:33 10.9 °C 9.6 °C 999.9 hPa SSE 14.0 km/h 19.5 km/h 92 % 0.3 mm
18:38 10.9 °C 9.6 °C 999.9 hPa South 19.8 km/h 20.1 km/h 92 % 0.3 mm
18:43 10.9 °C 9.6 °C 999.9 hPa SSW 9.7 km/h 21.2 km/h 92 % 0.3 mm
18:48 10.9 °C 9.4 °C 999.9 hPa SSW 12.2 km/h 21.2 km/h 91 % 0.3 mm
18:53 10.9 °C 9.4 °C 999.9 hPa SSW 10.5 km/h 20.1 km/h 91 % 0.3 mm
18:58 10.9 °C 9.4 °C 999.9 hPa SSW 14.3 km/h 16.9 km/h 91 % 0.3 mm
19:03 10.9 °C 9.4 °C 999.9 hPa South 9.0 km/h 16.9 km/h 91 % 0.3 mm
19:08 10.9 °C 9.4 °C 999.9 hPa South 8.7 km/h 17.7 km/h 91 % 0.3 mm
19:13 11.0 °C 9.4 °C 999.9 hPa SSE 11.9 km/h 17.7 km/h 90 % 0.3 mm
19:18 11.0 °C 9.4 °C 999.9 hPa South 10.1 km/h 17.7 km/h 90 % 0.3 mm
19:23 11.1 °C 9.3 °C 999.9 hPa South 13.0 km/h 18.0 km/h 89 % 0.3 mm
19:28 11.2 °C 9.4 °C 999.9 hPa South 12.2 km/h 23.0 km/h 89 % 0.0 mm
19:33 11.3 °C 9.3 °C 999.9 hPa SSW 12.2 km/h 23.0 km/h 88 % 0.0 mm
19:38 11.3 °C 9.3 °C 999.9 hPa South 15.1 km/h 20.1 km/h 88 % 0.0 mm
19:43 11.3 °C 9.3 °C 999.9 hPa SSW 16.6 km/h 20.1 km/h 88 % 0.0 mm
19:48 11.3 °C 9.3 °C 999.9 hPa SSW 9.7 km/h 19.5 km/h 88 % 0.0 mm
19:53 11.3 °C 9.3 °C 999.9 hPa South 12.2 km/h 18.0 km/h 88 % 0.0 mm
19:58 11.3 °C 9.3 °C 999.9 hPa South 16.3 km/h 18.0 km/h 88 % 0.0 mm
20:03 11.3 °C 9.3 °C 999.9 hPa South 10.1 km/h 19.5 km/h 88 % 0.0 mm
20:08 11.3 °C 9.3 °C 999.9 hPa SSW 12.6 km/h 19.5 km/h 88 % 0.0 mm
20:13 11.3 °C 9.2 °C 999.9 hPa SSW 16.6 km/h 17.2 km/h 87 % 0.0 mm
20:18 11.3 °C 9.2 °C 999.9 hPa South 10.5 km/h 20.6 km/h 87 % 0.0 mm
20:23 11.3 °C 9.2 °C 999.9 hPa SSW 6.1 km/h 20.6 km/h 87 % 0.0 mm
20:28 11.3 °C 9.2 °C 999.9 hPa SSE 12.6 km/h 16.9 km/h 87 % 0.0 mm
20:33 11.3 °C 9.3 °C 999.9 hPa SSW 9.3 km/h 16.6 km/h 88 % 0.0 mm
20:38 11.3 °C 9.3 °C 999.9 hPa SSE 13.7 km/h 17.2 km/h 88 % 0.0 mm
20:43 11.2 °C 9.3 °C 999.9 hPa South 11.9 km/h 19.1 km/h 88 % 0.0 mm
20:48 11.2 °C 9.3 °C 999.9 hPa SSW 13.0 km/h 19.1 km/h 88 % 0.0 mm
20:53 11.2 °C 9.3 °C 999.9 hPa South 12.2 km/h 19.1 km/h 88 % 0.0 mm
20:58 11.2 °C 9.3 °C 999.9 hPa South 19.1 km/h 20.6 km/h 88 % 0.0 mm
21:03 11.2 °C 9.4 °C 999.9 hPa SSW 14.3 km/h 23.8 km/h 89 % 0.0 mm
21:08 11.2 °C 9.4 °C 999.9 hPa SSW 7.9 km/h 18.3 km/h 89 % 0.0 mm
21:13 11.2 °C 9.4 °C 999.9 hPa South 15.4 km/h 16.6 km/h 89 % 0.0 mm
21:18 11.2 °C 9.4 °C 999.9 hPa SSW 9.7 km/h 15.8 km/h 89 % 0.0 mm
21:23 11.2 °C 9.4 °C 999.9 hPa South 14.0 km/h 15.4 km/h 89 % 0.0 mm
21:28 11.2 °C 9.4 °C 999.9 hPa SSW 6.9 km/h 24.5 km/h 89 % 0.0 mm
21:33 11.1 °C 9.5 °C 999.9 hPa South 12.6 km/h 24.5 km/h 90 % 0.0 mm
21:38 11.1 °C 9.5 °C 999.9 hPa South 15.4 km/h 19.8 km/h 90 % 0.0 mm
21:43 11.1 °C 9.5 °C 999.9 hPa South 9.0 km/h 15.4 km/h 90 % 0.0 mm
21:48 11.1 °C 9.7 °C 999.9 hPa South 13.7 km/h 16.6 km/h 91 % 0.0 mm
21:53 11.0 °C 9.6 °C 999.9 hPa South 11.9 km/h 17.2 km/h 91 % 0.0 mm
21:58 11.1 °C 9.7 °C 999.9 hPa SSW 17.2 km/h 20.1 km/h 91 % 0.0 mm
22:03 11.2 °C 9.8 °C 999.9 hPa WSW 11.9 km/h 20.1 km/h 91 % 0.0 mm
22:08 11.2 °C 9.8 °C 999.9 hPa SSW 11.6 km/h 16.9 km/h 91 % 0.0 mm
22:13 11.2 °C 9.8 °C 999.9 hPa South 13.7 km/h 14.0 km/h 91 % 0.0 mm
22:14 11.2 °C 9.8 °C 999.9 hPa South 13.7 km/h 14.0 km/h 91 % 0.0 mm
22:19 11.2 °C 9.8 °C 999.9 hPa South 7.6 km/h 17.2 km/h 91 % 0.0 mm
22:24 11.2 °C 9.8 °C 999.9 hPa SW 11.9 km/h 17.2 km/h 91 % 0.0 mm
22:29 11.2 °C 9.8 °C 999.9 hPa SW 6.9 km/h 15.4 km/h 91 % 0.0 mm
22:34 11.2 °C 9.8 °C 999.9 hPa SW 6.1 km/h 15.4 km/h 91 % 0.0 mm
22:39 11.2 °C 9.8 °C 999.9 hPa SW 7.9 km/h 13.0 km/h 91 % 0.0 mm
22:44 11.2 °C 9.8 °C 999.9 hPa SSW 14.0 km/h 14.0 km/h 91 % 0.0 mm
22:49 11.2 °C 9.8 °C 999.9 hPa SSW 11.9 km/h 14.0 km/h 91 % 0.0 mm
22:54 11.2 °C 9.9 °C 999.9 hPa SW 8.7 km/h 17.2 km/h 92 % 0.0 mm
22:59 11.2 °C 9.9 °C 999.9 hPa SW 9.3 km/h 17.2 km/h 92 % 0.0 mm
23:04 11.2 °C 9.9 °C 999.9 hPa SSW 13.7 km/h 19.1 km/h 92 % 0.0 mm
23:09 11.1 °C 9.8 °C 999.9 hPa SSW 9.3 km/h 19.1 km/h 92 % 0.0 mm
23:14 11.1 °C 9.8 °C 999.9 hPa South 7.9 km/h 15.4 km/h 92 % 0.0 mm
23:19 11.1 °C 9.8 °C 999.9 hPa SSW 6.9 km/h 14.0 km/h 92 % 0.0 mm
23:24 11.1 °C 10.0 °C 999.9 hPa SSW 13.0 km/h 16.9 km/h 93 % 0.0 mm
23:29 11.1 °C 9.8 °C 999.9 hPa SSW 4.7 km/h 16.9 km/h 92 % 0.0 mm
23:34 11.0 °C 9.7 °C 999.9 hPa SSW 9.0 km/h 13.7 km/h 92 % 0.0 mm
23:39 11.0 °C 9.7 °C 998.9 hPa SW 10.5 km/h 14.0 km/h 92 % 0.0 mm
23:44 10.9 °C 9.8 °C 998.9 hPa SSW 9.0 km/h 14.0 km/h 93 % 0.0 mm
23:49 10.9 °C 9.8 °C 998.9 hPa Calm   12.6 km/h 93 % 0.0 mm
23:54 10.8 °C 9.7 °C 998.9 hPa South 10.5 km/h 13.0 km/h 93 % 0.0 mm
23:59 10.8 °C 9.7 °C 998.9 hPa SSW 12.2 km/h 15.1 km/h 93 % 0.0 mm
Le Gheer Warneton
Courtoisie de Weather Underground - 2.25 mb

Mise a jour : 17-12-17 07:11:12
Généré par Cumulus 1.9.4 (1099)